sensor_id;sensor_type;location;lat;lon;timestamp;temperature;humidity
14995;DHT22;7593;49.006;8.372;2023-03-01T00:01:18;0.20;99.90
14995;DHT22;7593;49.006;8.372;2023-03-01T00:03:46;0.10;99.90
14995;DHT22;7593;49.006;8.372;2023-03-01T00:06:13;0.10;99.90
14995;DHT22;7593;49.006;8.372;2023-03-01T00:08:41;0.10;99.90
14995;DHT22;7593;49.006;8.372;2023-03-01T00:11:11;0.10;99.90
14995;DHT22;7593;49.006;8.372;2023-03-01T00:13:38;0.00;99.90
14995;DHT22;7593;49.006;8.372;2023-03-01T00:16:06;0.00;99.90
14995;DHT22;7593;49.006;8.372;2023-03-01T00:18:34;0.00;99.90
14995;DHT22;7593;49.006;8.372;2023-03-01T00:21:02;0.00;99.90
14995;DHT22;7593;49.006;8.372;2023-03-01T00:23:31;-0.10;99.90
14995;DHT22;7593;49.006;8.372;2023-03-01T00:25:59;-0.10;99.90
14995;DHT22;7593;49.006;8.372;2023-03-01T00:28:26;-0.10;99.90
14995;DHT22;7593;49.006;8.372;2023-03-01T00:30:53;-0.10;99.90
14995;DHT22;7593;49.006;8.372;2023-03-01T00:33:19;-0.10;99.90
14995;DHT22;7593;49.006;8.372;2023-03-01T00:35:46;-0.10;99.90
14995;DHT22;7593;49.006;8.372;2023-03-01T00:38:13;-0.10;99.90
14995;DHT22;7593;49.006;8.372;2023-03-01T00:40:40;-0.10;99.90
14995;DHT22;7593;49.006;8.372;2023-03-01T00:43:08;-0.10;99.90
14995;DHT22;7593;49.006;8.372;2023-03-01T00:45:35;-0.10;99.90
14995;DHT22;7593;49.006;8.372;2023-03-01T00:48:02;-0.10;99.90
14995;DHT22;7593;49.006;8.372;2023-03-01T00:50:30;-0.10;99.90
14995;DHT22;7593;49.006;8.372;2023-03-01T00:52:57;-0.10;99.90
14995;DHT22;7593;49.006;8.372;2023-03-01T00:55:25;-0.10;99.90
14995;DHT22;7593;49.006;8.372;2023-03-01T00:57:52;0.00;99.90
14995;DHT22;7593;49.006;8.372;2023-03-01T01:00:21;0.00;99.90
14995;DHT22;7593;49.006;8.372;2023-03-01T01:02:48;0.00;99.90
14995;DHT22;7593;49.006;8.372;2023-03-01T01:05:15;0.00;99.90
14995;DHT22;7593;49.006;8.372;2023-03-01T01:07:46;0.00;99.90
14995;DHT22;7593;49.006;8.372;2023-03-01T01:10:13;0.00;99.90
14995;DHT22;7593;49.006;8.372;2023-03-01T01:12:43;0.00;99.90
14995;DHT22;7593;49.006;8.372;2023-03-01T01:15:10;0.00;99.90
14995;DHT22;7593;49.006;8.372;2023-03-01T01:17:40;-0.10;99.90
14995;DHT22;7593;49.006;8.372;2023-03-01T01:20:08;-0.10;99.90
14995;DHT22;7593;49.006;8.372;2023-03-01T01:22:35;-0.10;99.90
14995;DHT22;7593;49.006;8.372;2023-03-01T01:25:02;-0.10;99.90
14995;DHT22;7593;49.006;8.372;2023-03-01T01:27:29;-0.10;99.90
14995;DHT22;7593;49.006;8.372;2023-03-01T01:29:56;-0.10;99.90
14995;DHT22;7593;49.006;8.372;2023-03-01T01:32:23;-0.10;99.90
14995;DHT22;7593;49.006;8.372;2023-03-01T01:34:51;-0.10;99.90
14995;DHT22;7593;49.006;8.372;2023-03-01T01:37:18;-0.10;99.90
14995;DHT22;7593;49.006;8.372;2023-03-01T01:39:45;-0.10;99.90
14995;DHT22;7593;49.006;8.372;2023-03-01T01:42:15;-0.10;99.90
14995;DHT22;7593;49.006;8.372;2023-03-01T01:44:42;-0.20;99.90
14995;DHT22;7593;49.006;8.372;2023-03-01T01:47:15;-0.20;99.90
14995;DHT22;7593;49.006;8.372;2023-03-01T01:49:47;-0.10;99.90
14995;DHT22;7593;49.006;8.372;2023-03-01T01:52:18;-0.20;99.90
14995;DHT22;7593;49.006;8.372;2023-03-01T01:54:50;-0.20;99.90
14995;DHT22;7593;49.006;8.372;2023-03-01T01:57:20;-0.20;99.90
14995;DHT22;7593;49.006;8.372;2023-03-01T01:59:50;-0.20;99.90
14995;DHT22;7593;49.006;8.372;2023-03-01T02:02:19;-0.20;99.90
14995;DHT22;7593;49.006;8.372;2023-03-01T02:04:46;-0.10;99.90
14995;DHT22;7593;49.006;8.372;2023-03-01T02:07:17;-0.10;99.90
14995;DHT22;7593;49.006;8.372;2023-03-01T02:09:46;-0.10;99.90
14995;DHT22;7593;49.006;8.372;2023-03-01T02:12:15;-0.20;99.90
14995;DHT22;7593;49.006;8.372;2023-03-01T02:14:43;-0.20;99.90
14995;DHT22;7593;49.006;8.372;2023-03-01T02:17:11;-0.20;99.90
14995;DHT22;7593;49.006;8.372;2023-03-01T02:19:51;-0.20;99.90
14995;DHT22;7593;49.006;8.372;2023-03-01T02:22:25;-0.20;99.90
14995;DHT22;7593;49.006;8.372;2023-03-01T02:25:04;-0.30;99.90
14995;DHT22;7593;49.006;8.372;2023-03-01T02:27:38;-0.20;99.90
14995;DHT22;7593;49.006;8.372;2023-03-01T02:30:09;-0.30;99.90
14995;DHT22;7593;49.006;8.372;2023-03-01T02:32:38;-0.30;99.90
14995;DHT22;7593;49.006;8.372;2023-03-01T02:35:09;-0.30;99.90
14995;DHT22;7593;49.006;8.372;2023-03-01T02:37:36;-0.40;99.90
14995;DHT22;7593;49.006;8.372;2023-03-01T02:40:07;-0.40;99.90
14995;DHT22;7593;49.006;8.372;2023-03-01T02:42:43;-0.50;99.90
14995;DHT22;7593;49.006;8.372;2023-03-01T02:45:13;-0.50;99.90
14995;DHT22;7593;49.006;8.372;2023-03-01T02:47:40;-0.60;99.90
14995;DHT22;7593;49.006;8.372;2023-03-01T02:50:19;-0.50;99.90
14995;DHT22;7593;49.006;8.372;2023-03-01T02:52:59;-0.60;99.90
14995;DHT22;7593;49.006;8.372;2023-03-01T02:55:27;-0.70;99.90
14995;DHT22;7593;49.006;8.372;2023-03-01T02:57:55;-0.70;99.90
14995;DHT22;7593;49.006;8.372;2023-03-01T03:00:28;-0.70;99.90
14995;DHT22;7593;49.006;8.372;2023-03-01T03:02:58;-0.70;99.90
14995;DHT22;7593;49.006;8.372;2023-03-01T03:05:27;-0.70;99.90
14995;DHT22;7593;49.006;8.372;2023-03-01T03:07:54;-0.70;99.90
14995;DHT22;7593;49.006;8.372;2023-03-01T03:10:24;-0.70;99.90
14995;DHT22;7593;49.006;8.372;2023-03-01T03:12:52;-0.70;99.90
14995;DHT22;7593;49.006;8.372;2023-03-01T03:15:21;-0.70;99.90
14995;DHT22;7593;49.006;8.372;2023-03-01T03:17:51;-0.70;99.90
14995;DHT22;7593;49.006;8.372;2023-03-01T03:20:20;-0.70;99.90
14995;DHT22;7593;49.006;8.372;2023-03-01T03:22:49;-0.70;99.90
14995;DHT22;7593;49.006;8.372;2023-03-01T03:25:17;-0.70;99.90
14995;DHT22;7593;49.006;8.372;2023-03-01T03:27:46;-0.70;99.90
14995;DHT22;7593;49.006;8.372;2023-03-01T03:30:17;-0.70;99.90
14995;DHT22;7593;49.006;8.372;2023-03-01T03:32:46;-0.80;99.90
14995;DHT22;7593;49.006;8.372;2023-03-01T03:35:19;-0.70;99.90
14995;DHT22;7593;49.006;8.372;2023-03-01T03:37:47;-0.80;99.90
14995;DHT22;7593;49.006;8.372;2023-03-01T03:40:30;-0.80;99.90
14995;DHT22;7593;49.006;8.372;2023-03-01T03:42:57;-0.80;99.90
14995;DHT22;7593;49.006;8.372;2023-03-01T03:45:25;-0.90;99.90
14995;DHT22;7593;49.006;8.372;2023-03-01T03:47:52;-0.90;99.90
14995;DHT22;7593;49.006;8.372;2023-03-01T03:50:20;-0.90;99.90
14995;DHT22;7593;49.006;8.372;2023-03-01T03:52:46;-1.00;99.90
14995;DHT22;7593;49.006;8.372;2023-03-01T03:55:13;-1.00;99.90
14995;DHT22;7593;49.006;8.372;2023-03-01T03:57:45;-1.10;99.90
14995;DHT22;7593;49.006;8.372;2023-03-01T04:00:18;-1.00;99.90
14995;DHT22;7593;49.006;8.372;2023-03-01T04:02:47;-1.10;99.90
14995;DHT22;7593;49.006;8.372;2023-03-01T04:05:15;-1.10;99.90
14995;DHT22;7593;49.006;8.372;2023-03-01T04:07:45;-1.10;99.90
14995;DHT22;7593;49.006;8.372;2023-03-01T04:10:13;-1.20;99.90
14995;DHT22;7593;49.006;8.372;2023-03-01T04:12:41;-1.20;99.90
14995;DHT22;7593;49.006;8.372;2023-03-01T04:15:10;-1.20;99.90
14995;DHT22;7593;49.006;8.372;2023-03-01T04:17:39;-1.10;99.90
14995;DHT22;7593;49.006;8.372;2023-03-01T04:20:08;-1.10;99.90
14995;DHT22;7593;49.006;8.372;2023-03-01T04:22:35;-1.20;99.90
14995;DHT22;7593;49.006;8.372;2023-03-01T04:25:04;-1.20;99.90
14995;DHT22;7593;49.006;8.372;2023-03-01T04:27:32;-1.20;99.90
14995;DHT22;7593;49.006;8.372;2023-03-01T04:29:59;-1.20;99.90
14995;DHT22;7593;49.006;8.372;2023-03-01T04:32:26;-1.20;99.90
14995;DHT22;7593;49.006;8.372;2023-03-01T04:34:52;-1.20;99.90
14995;DHT22;7593;49.006;8.372;2023-03-01T04:37:20;-1.20;99.90
14995;DHT22;7593;49.006;8.372;2023-03-01T04:39:47;-1.20;99.90
14995;DHT22;7593;49.006;8.372;2023-03-01T04:42:16;-1.30;99.90
14995;DHT22;7593;49.006;8.372;2023-03-01T04:44:43;-1.30;99.90
14995;DHT22;7593;49.006;8.372;2023-03-01T04:47:10;-1.30;99.90
14995;DHT22;7593;49.006;8.372;2023-03-01T04:49:37;-1.30;99.90
14995;DHT22;7593;49.006;8.372;2023-03-01T04:52:05;-1.30;99.90
14995;DHT22;7593;49.006;8.372;2023-03-01T04:54:33;-1.30;99.90
14995;DHT22;7593;49.006;8.372;2023-03-01T04:57:00;-1.30;99.90
14995;DHT22;7593;49.006;8.372;2023-03-01T04:59:29;-1.40;99.90
14995;DHT22;7593;49.006;8.372;2023-03-01T05:01:56;-1.40;99.90
14995;DHT22;7593;49.006;8.372;2023-03-01T05:04:26;-1.40;99.90
14995;DHT22;7593;49.006;8.372;2023-03-01T05:06:52;-1.50;99.90
14995;DHT22;7593;49.006;8.372;2023-03-01T05:09:20;-1.50;99.90
14995;DHT22;7593;49.006;8.372;2023-03-01T05:11:46;-1.50;99.90
14995;DHT22;7593;49.006;8.372;2023-03-01T05:14:13;-1.50;99.90
14995;DHT22;7593;49.006;8.372;2023-03-01T05:16:42;-1.50;99.90
14995;DHT22;7593;49.006;8.372;2023-03-01T05:19:08;-1.60;99.90
14995;DHT22;7593;49.006;8.372;2023-03-01T05:21:41;-1.60;99.90
14995;DHT22;7593;49.006;8.372;2023-03-01T05:24:21;-1.60;99.90
14995;DHT22;7593;49.006;8.372;2023-03-01T05:26:48;-1.60;99.90
14995;DHT22;7593;49.006;8.372;2023-03-01T05:29:17;-1.60;99.90
14995;DHT22;7593;49.006;8.372;2023-03-01T05:31:47;-1.60;99.90
14995;DHT22;7593;49.006;8.372;2023-03-01T05:34:14;-1.60;99.90
14995;DHT22;7593;49.006;8.372;2023-03-01T05:36:41;-1.60;99.90
14995;DHT22;7593;49.006;8.372;2023-03-01T05:39:08;-1.60;99.90
14995;DHT22;7593;49.006;8.372;2023-03-01T05:41:37;-1.60;99.90
14995;DHT22;7593;49.006;8.372;2023-03-01T05:44:06;-1.60;99.90
14995;DHT22;7593;49.006;8.372;2023-03-01T05:46:34;-1.60;99.90
14995;DHT22;7593;49.006;8.372;2023-03-01T05:49:03;-1.70;99.90
14995;DHT22;7593;49.006;8.372;2023-03-01T05:51:30;-1.70;99.90
14995;DHT22;7593;49.006;8.372;2023-03-01T05:53:57;-1.70;99.90
14995;DHT22;7593;49.006;8.372;2023-03-01T05:56:24;-1.70;99.90
14995;DHT22;7593;49.006;8.372;2023-03-01T05:58:51;-1.70;99.90
14995;DHT22;7593;49.006;8.372;2023-03-01T06:01:17;-1.70;99.90
14995;DHT22;7593;49.006;8.372;2023-03-01T06:03:44;-1.70;99.90
14995;DHT22;7593;49.006;8.372;2023-03-01T06:06:12;-1.70;99.90
14995;DHT22;7593;49.006;8.372;2023-03-01T06:08:39;-1.70;99.90
14995;DHT22;7593;49.006;8.372;2023-03-01T06:11:06;-1.70;99.90
14995;DHT22;7593;49.006;8.372;2023-03-01T06:13:33;-1.70;99.90
14995;DHT22;7593;49.006;8.372;2023-03-01T06:16:00;-1.70;99.90
14995;DHT22;7593;49.006;8.372;2023-03-01T06:18:26;-1.70;99.90
14995;DHT22;7593;49.006;8.372;2023-03-01T06:20:53;-1.70;99.90
14995;DHT22;7593;49.006;8.372;2023-03-01T06:23:23;-1.70;99.90
14995;DHT22;7593;49.006;8.372;2023-03-01T06:25:50;-1.70;99.90
14995;DHT22;7593;49.006;8.372;2023-03-01T06:28:16;-1.60;99.90
14995;DHT22;7593;49.006;8.372;2023-03-01T06:30:43;-1.60;99.90
14995;DHT22;7593;49.006;8.372;2023-03-01T06:33:10;-1.60;99.90
14995;DHT22;7593;49.006;8.372;2023-03-01T06:35:37;-1.60;99.90
14995;DHT22;7593;49.006;8.372;2023-03-01T06:38:04;-1.50;99.90
14995;DHT22;7593;49.006;8.372;2023-03-01T06:40:33;-1.50;99.90
14995;DHT22;7593;49.006;8.372;2023-03-01T06:43:00;-1.40;99.90
14995;DHT22;7593;49.006;8.372;2023-03-01T06:45:27;-1.40;99.90
14995;DHT22;7593;49.006;8.372;2023-03-01T06:48:02;-1.30;99.90
14995;DHT22;7593;49.006;8.372;2023-03-01T06:50:29;-1.30;99.90
14995;DHT22;7593;49.006;8.372;2023-03-01T06:52:56;-1.30;99.90
14995;DHT22;7593;49.006;8.372;2023-03-01T06:55:24;-1.20;99.90
14995;DHT22;7593;49.006;8.372;2023-03-01T06:57:55;-1.20;99.90
14995;DHT22;7593;49.006;8.372;2023-03-01T07:00:23;-1.10;99.90
14995;DHT22;7593;49.006;8.372;2023-03-01T07:02:50;-1.10;99.90
14995;DHT22;7593;49.006;8.372;2023-03-01T07:05:17;-1.00;99.90
14995;DHT22;7593;49.006;8.372;2023-03-01T07:07:44;-1.00;99.90
14995;DHT22;7593;49.006;8.372;2023-03-01T07:10:12;-1.00;99.90
14995;DHT22;7593;49.006;8.372;2023-03-01T07:12:39;-0.90;99.90
14995;DHT22;7593;49.006;8.372;2023-03-01T07:15:09;-1.00;99.90
14995;DHT22;7593;49.006;8.372;2023-03-01T07:17:36;-0.80;99.90
14995;DHT22;7593;49.006;8.372;2023-03-01T07:20:04;-0.60;99.90
14995;DHT22;7593;49.006;8.372;2023-03-01T07:22:30;-0.30;99.90
14995;DHT22;7593;49.006;8.372;2023-03-01T07:24:57;0.00;99.90
14995;DHT22;7593;49.006;8.372;2023-03-01T07:27:24;0.30;99.90
14995;DHT22;7593;49.006;8.372;2023-03-01T07:29:51;0.70;99.90
14995;DHT22;7593;49.006;8.372;2023-03-01T07:32:19;1.00;99.90
14995;DHT22;7593;49.006;8.372;2023-03-01T07:34:46;1.30;99.90
14995;DHT22;7593;49.006;8.372;2023-03-01T07:37:13;1.60;99.90
14995;DHT22;7593;49.006;8.372;2023-03-01T07:39:40;1.90;99.90
14995;DHT22;7593;49.006;8.372;2023-03-01T07:42:07;2.20;99.90
14995;DHT22;7593;49.006;8.372;2023-03-01T07:44:34;2.30;99.90
14995;DHT22;7593;49.006;8.372;2023-03-01T07:47:02;2.50;99.90
14995;DHT22;7593;49.006;8.372;2023-03-01T07:49:30;2.70;99.90
14995;DHT22;7593;49.006;8.372;2023-03-01T07:51:57;2.80;99.90
14995;DHT22;7593;49.006;8.372;2023-03-01T07:54:24;3.00;99.90
14995;DHT22;7593;49.006;8.372;2023-03-01T07:56:51;3.10;99.90
14995;DHT22;7593;49.006;8.372;2023-03-01T07:59:20;3.10;99.90
14995;DHT22;7593;49.006;8.372;2023-03-01T08:01:46;3.10;99.90
14995;DHT22;7593;49.006;8.372;2023-03-01T08:04:13;3.20;99.90
14995;DHT22;7593;49.006;8.372;2023-03-01T08:06:41;3.30;99.90
14995;DHT22;7593;49.006;8.372;2023-03-01T08:09:08;3.40;99.90
14995;DHT22;7593;49.006;8.372;2023-03-01T08:11:35;3.30;99.90
14995;DHT22;7593;49.006;8.372;2023-03-01T08:14:02;3.30;99.90
14995;DHT22;7593;49.006;8.372;2023-03-01T08:16:29;3.30;99.90
14995;DHT22;7593;49.006;8.372;2023-03-01T08:18:56;3.30;99.90
14995;DHT22;7593;49.006;8.372;2023-03-01T08:21:26;3.10;99.90
14995;DHT22;7593;49.006;8.372;2023-03-01T08:23:54;3.10;99.90
14995;DHT22;7593;49.006;8.372;2023-03-01T08:26:21;3.40;99.90
14995;DHT22;7593;49.006;8.372;2023-03-01T08:28:49;3.40;99.90
14995;DHT22;7593;49.006;8.372;2023-03-01T08:31:18;3.60;99.90
14995;DHT22;7593;49.006;8.372;2023-03-01T08:33:46;3.70;99.90
14995;DHT22;7593;49.006;8.372;2023-03-01T08:36:16;3.70;99.90
14995;DHT22;7593;49.006;8.372;2023-03-01T08:38:43;3.90;99.90
14995;DHT22;7593;49.006;8.372;2023-03-01T08:41:12;3.90;99.90
14995;DHT22;7593;49.006;8.372;2023-03-01T08:43:39;4.00;99.90
14995;DHT22;7593;49.006;8.372;2023-03-01T08:46:06;3.90;99.90
14995;DHT22;7593;49.006;8.372;2023-03-01T08:48:33;3.90;99.90
14995;DHT22;7593;49.006;8.372;2023-03-01T08:51:07;4.00;99.90
14995;DHT22;7593;49.006;8.372;2023-03-01T08:53:34;4.00;99.90
14995;DHT22;7593;49.006;8.372;2023-03-01T08:56:01;4.10;99.90
14995;DHT22;7593;49.006;8.372;2023-03-01T08:58:30;4.10;99.90
14995;DHT22;7593;49.006;8.372;2023-03-01T09:00:57;4.10;99.90
14995;DHT22;7593;49.006;8.372;2023-03-01T09:03:24;4.00;99.90
14995;DHT22;7593;49.006;8.372;2023-03-01T09:05:52;4.00;99.90
14995;DHT22;7593;49.006;8.372;2023-03-01T09:08:19;3.90;99.90
14995;DHT22;7593;49.006;8.372;2023-03-01T09:10:46;3.80;99.90
14995;DHT22;7593;49.006;8.372;2023-03-01T09:13:13;3.80;99.90
14995;DHT22;7593;49.006;8.372;2023-03-01T09:15:41;3.80;99.90
14995;DHT22;7593;49.006;8.372;2023-03-01T09:18:07;3.80;99.90
14995;DHT22;7593;49.006;8.372;2023-03-01T09:20:34;4.00;99.90
14995;DHT22;7593;49.006;8.372;2023-03-01T09:23:01;4.30;99.90
14995;DHT22;7593;49.006;8.372;2023-03-01T09:25:28;4.40;99.90
14995;DHT22;7593;49.006;8.372;2023-03-01T09:27:55;4.30;99.90
14995;DHT22;7593;49.006;8.372;2023-03-01T09:30:22;4.30;99.90
14995;DHT22;7593;49.006;8.372;2023-03-01T09:32:51;4.20;99.90
14995;DHT22;7593;49.006;8.372;2023-03-01T09:35:17;4.40;99.90
14995;DHT22;7593;49.006;8.372;2023-03-01T09:37:45;4.30;99.90
14995;DHT22;7593;49.006;8.372;2023-03-01T09:40:15;4.40;99.90
14995;DHT22;7593;49.006;8.372;2023-03-01T09:42:48;4.50;99.90
14995;DHT22;7593;49.006;8.372;2023-03-01T09:45:27;4.70;99.90
14995;DHT22;7593;49.006;8.372;2023-03-01T09:47:57;5.10;99.90
14995;DHT22;7593;49.006;8.372;2023-03-01T09:50:26;5.50;99.90
14995;DHT22;7593;49.006;8.372;2023-03-01T09:53:00;5.70;99.90
14995;DHT22;7593;49.006;8.372;2023-03-01T09:55:31;5.60;99.90
14995;DHT22;7593;49.006;8.372;2023-03-01T09:58:04;5.30;99.90
14995;DHT22;7593;49.006;8.372;2023-03-01T10:00:38;5.30;99.90
14995;DHT22;7593;49.006;8.372;2023-03-01T10:03:14;5.30;99.90
14995;DHT22;7593;49.006;8.372;2023-03-01T10:05:49;5.40;99.90
14995;DHT22;7593;49.006;8.372;2023-03-01T10:11:20;6.00;99.90
14995;DHT22;7593;49.006;8.372;2023-03-01T10:13:54;6.10;99.90
14995;DHT22;7593;49.006;8.372;2023-03-01T10:16:26;6.30;99.90
14995;DHT22;7593;49.006;8.372;2023-03-01T10:18:58;6.30;99.90
14995;DHT22;7593;49.006;8.372;2023-03-01T10:21:27;6.40;99.90
14995;DHT22;7593;49.006;8.372;2023-03-01T10:24:01;6.90;99.90
14995;DHT22;7593;49.006;8.372;2023-03-01T10:26:43;7.00;99.90
14995;DHT22;7593;49.006;8.372;2023-03-01T10:29:12;6.90;99.90
14995;DHT22;7593;49.006;8.372;2023-03-01T10:31:42;7.10;99.90
14995;DHT22;7593;49.006;8.372;2023-03-01T10:34:13;7.00;99.90
14995;DHT22;7593;49.006;8.372;2023-03-01T10:36:42;7.20;99.90
14995;DHT22;7593;49.006;8.372;2023-03-01T10:39:15;7.20;99.90
14995;DHT22;7593;49.006;8.372;2023-03-01T10:41:59;7.40;99.90
14995;DHT22;7593;49.006;8.372;2023-03-01T10:44:38;7.50;99.90
14995;DHT22;7593;49.006;8.372;2023-03-01T10:47:08;7.50;99.90
14995;DHT22;7593;49.006;8.372;2023-03-01T10:49:52;7.50;99.90
14995;DHT22;7593;49.006;8.372;2023-03-01T10:52:21;7.80;99.90
14995;DHT22;7593;49.006;8.372;2023-03-01T10:54:53;7.90;99.90
14995;DHT22;7593;49.006;8.372;2023-03-01T10:57:29;7.70;99.90
14995;DHT22;7593;49.006;8.372;2023-03-01T11:00:19;7.30;99.90
14995;DHT22;7593;49.006;8.372;2023-03-01T11:02:49;7.30;99.90
14995;DHT22;7593;49.006;8.372;2023-03-01T11:05:20;7.20;99.90
14995;DHT22;7593;49.006;8.372;2023-03-01T11:07:50;7.20;99.90
14995;DHT22;7593;49.006;8.372;2023-03-01T11:10:20;7.20;99.90
14995;DHT22;7593;49.006;8.372;2023-03-01T11:12:48;7.50;99.90
14995;DHT22;7593;49.006;8.372;2023-03-01T11:15:26;7.60;99.90
14995;DHT22;7593;49.006;8.372;2023-03-01T11:17:54;7.70;99.90
14995;DHT22;7593;49.006;8.372;2023-03-01T11:20:29;7.30;99.90
14995;DHT22;7593;49.006;8.372;2023-03-01T11:22:59;7.10;99.90
14995;DHT22;7593;49.006;8.372;2023-03-01T11:25:31;7.10;99.90
14995;DHT22;7593;49.006;8.372;2023-03-01T11:28:00;7.40;99.90
14995;DHT22;7593;49.006;8.372;2023-03-01T11:30:30;7.50;99.90
14995;DHT22;7593;49.006;8.372;2023-03-01T11:33:08;7.80;99.90
14995;DHT22;7593;49.006;8.372;2023-03-01T11:35:44;8.00;99.90
14995;DHT22;7593;49.006;8.372;2023-03-01T11:38:21;8.00;99.90
14995;DHT22;7593;49.006;8.372;2023-03-01T11:40:52;8.30;99.90
14995;DHT22;7593;49.006;8.372;2023-03-01T11:43:24;8.60;99.90
14995;DHT22;7593;49.006;8.372;2023-03-01T11:46:18;8.60;99.40
14995;DHT22;7593;49.006;8.372;2023-03-01T11:48:59;8.60;99.40
14995;DHT22;7593;49.006;8.372;2023-03-01T11:51:40;8.80;99.30
14995;DHT22;7593;49.006;8.372;2023-03-01T11:54:28;9.00;99.10
14995;DHT22;7593;49.006;8.372;2023-03-01T11:57:01;9.50;98.80
14995;DHT22;7593;49.006;8.372;2023-03-01T12:00:03;9.80;98.20
14995;DHT22;7593;49.006;8.372;2023-03-01T12:02:56;9.70;97.70
14995;DHT22;7593;49.006;8.372;2023-03-01T12:05:48;9.40;98.10
14995;DHT22;7593;49.006;8.372;2023-03-01T12:08:22;9.10;98.10
14995;DHT22;7593;49.006;8.372;2023-03-01T12:10:57;8.90;98.20
14995;DHT22;7593;49.006;8.372;2023-03-01T12:13:46;9.10;98.60
14995;DHT22;7593;49.006;8.372;2023-03-01T12:16:28;9.20;98.40
14995;DHT22;7593;49.006;8.372;2023-03-01T12:22:04;9.40;98.20
14995;DHT22;7593;49.006;8.372;2023-03-01T12:24:56;9.50;97.60
14995;DHT22;7593;49.006;8.372;2023-03-01T12:27:55;9.30;97.70
14995;DHT22;7593;49.006;8.372;2023-03-01T12:30:33;9.60;97.60
14995;DHT22;7593;49.006;8.372;2023-03-01T12:33:13;10.10;96.60
14995;DHT22;7593;49.006;8.372;2023-03-01T12:36:06;10.10;96.20
14995;DHT22;7593;49.006;8.372;2023-03-01T12:38:41;10.00;96.50
14995;DHT22;7593;49.006;8.372;2023-03-01T12:41:21;10.20;96.60
14995;DHT22;7593;49.006;8.372;2023-03-01T12:44:01;10.60;96.00
14995;DHT22;7593;49.006;8.372;2023-03-01T12:46:41;10.90;95.30
14995;DHT22;7593;49.006;8.372;2023-03-01T12:49:12;11.00;95.20
14995;DHT22;7593;49.006;8.372;2023-03-01T12:51:40;11.10;94.90
14995;DHT22;7593;49.006;8.372;2023-03-01T12:54:15;10.90;95.10
14995;DHT22;7593;49.006;8.372;2023-03-01T12:56:45;10.70;95.40
14995;DHT22;7593;49.006;8.372;2023-03-01T12:59:21;10.80;95.20
14995;DHT22;7593;49.006;8.372;2023-03-01T13:01:54;11.20;94.90
14995;DHT22;7593;49.006;8.372;2023-03-01T13:04:33;11.40;94.60
14995;DHT22;7593;49.006;8.372;2023-03-01T13:07:14;11.30;94.50
14995;DHT22;7593;49.006;8.372;2023-03-01T13:09:49;10.60;94.30
14995;DHT22;7593;49.006;8.372;2023-03-01T13:12:46;10.60;95.00
14995;DHT22;7593;49.006;8.372;2023-03-01T13:15:32;10.70;95.10
14995;DHT22;7593;49.006;8.372;2023-03-01T13:18:02;10.60;95.10
14995;DHT22;7593;49.006;8.372;2023-03-01T13:20:33;10.50;94.90
14995;DHT22;7593;49.006;8.372;2023-03-01T13:23:04;10.40;95.00
14995;DHT22;7593;49.006;8.372;2023-03-01T13:25:32;10.30;95.50
14995;DHT22;7593;49.006;8.372;2023-03-01T13:31:05;10.80;95.00
14995;DHT22;7593;49.006;8.372;2023-03-01T13:33:46;11.10;94.50
14995;DHT22;7593;49.006;8.372;2023-03-01T13:36:47;11.10;94.50
14995;DHT22;7593;49.006;8.372;2023-03-01T13:39:28;11.30;94.20
14995;DHT22;7593;49.006;8.372;2023-03-01T13:41:57;11.10;94.30
14995;DHT22;7593;49.006;8.372;2023-03-01T13:44:29;11.00;94.40
14995;DHT22;7593;49.006;8.372;2023-03-01T13:46:59;11.10;94.10
14995;DHT22;7593;49.006;8.372;2023-03-01T13:49:35;11.10;94.00
14995;DHT22;7593;49.006;8.372;2023-03-01T13:52:03;10.70;94.40
14995;DHT22;7593;49.006;8.372;2023-03-01T13:54:33;11.10;94.40
14995;DHT22;7593;49.006;8.372;2023-03-01T13:57:01;11.60;94.10
14995;DHT22;7593;49.006;8.372;2023-03-01T13:59:29;12.30;93.80
14995;DHT22;7593;49.006;8.372;2023-03-01T14:01:58;12.70;92.90
14995;DHT22;7593;49.006;8.372;2023-03-01T14:04:28;12.90;92.40
14995;DHT22;7593;49.006;8.372;2023-03-01T14:07:12;13.20;92.40
14995;DHT22;7593;49.006;8.372;2023-03-01T14:09:41;13.20;91.80
14995;DHT22;7593;49.006;8.372;2023-03-01T14:12:25;12.70;91.90
14995;DHT22;7593;49.006;8.372;2023-03-01T14:14:59;12.50;92.20
14995;DHT22;7593;49.006;8.372;2023-03-01T14:17:40;12.70;92.20
14995;DHT22;7593;49.006;8.372;2023-03-01T14:22:41;13.10;91.90
14995;DHT22;7593;49.006;8.372;2023-03-01T14:25:20;13.10;91.80
14995;DHT22;7593;49.006;8.372;2023-03-01T14:27:55;12.80;91.70
14995;DHT22;7593;49.006;8.372;2023-03-01T14:30:24;12.60;91.80
14995;DHT22;7593;49.006;8.372;2023-03-01T14:32:54;12.60;92.00
14995;DHT22;7593;49.006;8.372;2023-03-01T14:35:23;12.40;91.90
14995;DHT22;7593;49.006;8.372;2023-03-01T14:37:50;12.30;91.90
14995;DHT22;7593;49.006;8.372;2023-03-01T14:40:23;11.40;92.40
14995;DHT22;7593;49.006;8.372;2023-03-01T14:42:51;11.60;92.70
14995;DHT22;7593;49.006;8.372;2023-03-01T14:45:20;11.90;92.70
14995;DHT22;7593;49.006;8.372;2023-03-01T14:47:47;11.90;92.40
14995;DHT22;7593;49.006;8.372;2023-03-01T14:50:21;12.00;92.40
14995;DHT22;7593;49.006;8.372;2023-03-01T14:52:52;12.20;92.20
14995;DHT22;7593;49.006;8.372;2023-03-01T14:55:21;11.60;92.40
14995;DHT22;7593;49.006;8.372;2023-03-01T14:57:51;11.60;92.70
14995;DHT22;7593;49.006;8.372;2023-03-01T15:00:21;11.40;93.20
14995;DHT22;7593;49.006;8.372;2023-03-01T15:02:51;11.00;93.10
14995;DHT22;7593;49.006;8.372;2023-03-01T15:05:25;11.10;93.40
14995;DHT22;7593;49.006;8.372;2023-03-01T15:07:54;11.10;93.30
14995;DHT22;7593;49.006;8.372;2023-03-01T15:10:23;11.20;93.70
14995;DHT22;7593;49.006;8.372;2023-03-01T15:12:51;11.30;93.10
14995;DHT22;7593;49.006;8.372;2023-03-01T15:15:34;11.40;93.10
14995;DHT22;7593;49.006;8.372;2023-03-01T15:18:03;11.50;93.00
14995;DHT22;7593;49.006;8.372;2023-03-01T15:20:33;11.60;92.90
14995;DHT22;7593;49.006;8.372;2023-03-01T15:23:02;11.50;93.10
14995;DHT22;7593;49.006;8.372;2023-03-01T15:25:31;11.50;93.10
14995;DHT22;7593;49.006;8.372;2023-03-01T15:28:00;11.60;93.20
14995;DHT22;7593;49.006;8.372;2023-03-01T15:30:30;11.70;92.70
14995;DHT22;7593;49.006;8.372;2023-03-01T15:33:34;11.70;92.60
14995;DHT22;7593;49.006;8.372;2023-03-01T15:36:04;11.50;92.70
14995;DHT22;7593;49.006;8.372;2023-03-01T15:38:52;11.20;93.00
14995;DHT22;7593;49.006;8.372;2023-03-01T15:41:24;11.10;93.30
14995;DHT22;7593;49.006;8.372;2023-03-01T15:43:51;11.00;93.40
14995;DHT22;7593;49.006;8.372;2023-03-01T15:46:24;11.10;93.40
14995;DHT22;7593;49.006;8.372;2023-03-01T15:48:53;11.20;93.30
14995;DHT22;7593;49.006;8.372;2023-03-01T15:51:29;11.20;93.20
14995;DHT22;7593;49.006;8.372;2023-03-01T15:53:59;11.00;93.30
14995;DHT22;7593;49.006;8.372;2023-03-01T15:56:26;11.00;93.50
14995;DHT22;7593;49.006;8.372;2023-03-01T15:59:02;11.00;93.40
14995;DHT22;7593;49.006;8.372;2023-03-01T16:01:30;10.90;93.50
14995;DHT22;7593;49.006;8.372;2023-03-01T16:03:59;10.70;93.80
14995;DHT22;7593;49.006;8.372;2023-03-01T16:06:28;10.30;94.00
14995;DHT22;7593;49.006;8.372;2023-03-01T16:08:55;10.20;94.10
14995;DHT22;7593;49.006;8.372;2023-03-01T16:11:22;9.90;95.00
14995;DHT22;7593;49.006;8.372;2023-03-01T16:13:49;9.80;95.30
14995;DHT22;7593;49.006;8.372;2023-03-01T16:16:16;9.60;95.30
14995;DHT22;7593;49.006;8.372;2023-03-01T16:18:44;9.40;95.60
14995;DHT22;7593;49.006;8.372;2023-03-01T16:21:14;9.30;95.80
14995;DHT22;7593;49.006;8.372;2023-03-01T16:23:43;9.10;96.00
14995;DHT22;7593;49.006;8.372;2023-03-01T16:26:11;9.00;96.20